Time;durP1;ratioP1;P1;durP2;ratioP2;P2;SDS_P1;SDS_P2;PMS_P1;PMS_P2;Temp;Humidity;BMP_temperature;BMP_pressure;BME280_temperature;BME280_humidity;BME280_pressure;Samples;Min_cycle;Max_cycle;Signal;HPM_P1;HPM_P2
2021/03/05 00:00:41;;;;;;;7.95;3.50;;;;;;;-2.31;83.31;99781.99;1770011;79;21170;-68
2021/03/05 00:03:10;;;;;;;8.03;3.65;;;;;;;-2.35;83.26;99780.25;1739369;80;21177;-68
2021/03/05 00:05:39;;;;;;;8.15;3.12;;;;;;;-2.39;83.30;99781.09;1736941;82;21349;-68
2021/03/05 00:08:08;;;;;;;7.53;3.30;;;;;;;-2.45;83.30;99779.34;1751352;81;21194;-68
2021/03/05 00:10:41;;;;;;;4.60;2.92;;;;;;;-2.52;83.32;99789.97;1747331;79;21212;-68
2021/03/05 00:13:09;;;;;;;5.47;2.77;;;;;;;-2.57;83.39;99796.75;1741173;80;21016;-69
2021/03/05 00:15:40;;;;;;;8.03;3.08;;;;;;;-2.63;83.41;99792.88;1741211;81;21561;-69
2021/03/05 00:18:08;;;;;;;7.83;3.42;;;;;;;-2.68;83.45;99797.09;1736809;81;21035;-68
2021/03/05 00:20:37;;;;;;;;;;;;;;;-2.73;83.49;99793.64;1750915;79;21274;-68
2021/03/05 00:23:05;;;;;;;10.40;3.30;;;;;;;-2.76;83.52;99791.06;1745902;81;21216;-69
2021/03/05 00:25:31;;;;;;;;;;;;;;;-2.81;83.49;99787.61;1752854;80;21605;-68
2021/03/05 00:27:59;;;;;;;6.87;3.20;;;;;;;-2.84;83.58;99787.59;1754630;79;20561;-68
2021/03/05 00:30:27;;;;;;;;;;;;;;;-2.85;83.67;99794.41;1738825;81;21244;-68
2021/03/05 00:32:54;;;;;;;6.60;2.75;;;;;;;-2.87;83.53;99795.23;1750032;81;20268;-68
2021/03/05 00:35:23;;;;;;;6.28;2.87;;;;;;;-2.95;83.53;99799.00;1745034;81;24457;-68
2021/03/05 00:37:53;;;;;;;6.87;3.30;;;;;;;-2.98;83.61;99801.10;1750319;79;22264;-68
2021/03/05 00:40:23;;;;;;;7.12;3.15;;;;;;;-3.00;83.60;99804.05;1733565;81;21757;-68
2021/03/05 00:42:51;;;;;;;10.03;3.60;;;;;;;-3.02;83.67;99809.59;1751752;80;21227;-68
2021/03/05 00:45:22;;;;;;;9.55;3.40;;;;;;;-3.04;83.62;99803.61;1751527;81;21650;-68
2021/03/05 00:47:51;;;;;;;9.53;3.02;;;;;;;-3.07;83.66;99807.84;1742001;81;22428;-68
2021/03/05 00:50:20;;;;;;;6.35;2.35;;;;;;;-3.11;83.62;99809.48;1750933;81;21247;-68
2021/03/05 00:52:50;;;;;;;4.83;1.90;;;;;;;-3.14;83.65;99809.47;1750014;81;21147;-68
2021/03/05 00:55:17;;;;;;;7.62;3.15;;;;;;;-3.13;83.64;99815.45;1746471;81;21130;-68
2021/03/05 00:57:44;;;;;;;;;;;;;;;-3.15;83.67;99815.42;1738148;81;21158;-68
2021/03/05 01:00:14;;;;;;;5.58;2.62;;;;;;;-3.14;83.72;99815.85;1753734;81;21477;-68
2021/03/05 01:02:43;;;;;;;6.40;2.92;;;;;;;-3.16;83.69;99807.34;1749725;80;21205;-69
2021/03/05 01:05:10;;;;;;;7.42;2.95;;;;;;;-3.20;83.64;99812.81;1747874;80;21182;-68
2021/03/05 01:07:38;;;;;;;5.17;2.72;;;;;;;-3.24;83.54;99805.13;1750563;80;21158;-68
2021/03/05 01:10:07;;;;;;;6.92;2.77;;;;;;;-3.29;83.51;99808.05;1751675;80;21220;-68
2021/03/05 01:12:35;;;;;;;8.55;3.25;;;;;;;-3.33;83.52;99817.78;1748231;81;21979;-68
2021/03/05 01:15:05;;;;;;;6.55;3.20;;;;;;;-3.37;83.59;99805.41;1744855;80;21272;-68
2021/03/05 01:17:32;;;;;;;8.30;2.50;;;;;;;-3.44;83.49;99808.34;1747759;80;21143;-68
2021/03/05 01:20:01;;;;;;;10.78;3.72;;;;;;;-3.51;83.52;99805.27;1747873;80;21223;-68
2021/03/05 01:22:28;;;;;;;13.00;4.35;;;;;;;-3.60;83.41;99812.41;1751855;81;21244;-68
2021/03/05 01:24:55;;;;;;;18.77;7.22;;;;;;;-3.66;83.53;99814.05;1740979;80;21204;-68
2021/03/05 01:27:22;;;;;;;30.82;9.08;;;;;;;-3.67;83.61;99812.31;1726362;82;21066;-68
2021/03/05 01:29:49;;;;;;;6.80;4.17;;;;;;;-3.70;83.62;99812.28;1732300;82;21218;-68
2021/03/05 01:32:16;;;;;;;11.35;4.70;;;;;;;-3.72;83.65;99814.83;1728900;82;21200;-68
2021/03/05 01:34:43;;;;;;;15.35;7.12;;;;;;;-3.76;83.63;99816.89;1732240;82;21231;-68
2021/03/05 01:37:09;;;;;;;13.53;4.33;;;;;;;-3.80;83.68;99818.13;1728723;81;21196;-68
2021/03/05 01:39:36;;;;;;;8.20;4.15;;;;;;;-3.86;83.65;99817.20;1734769;82;21673;-68
2021/03/05 01:42:04;;;;;;;9.18;4.00;;;;;;;-3.88;83.70;99825.68;1730439;81;21265;-68
2021/03/05 01:44:31;;;;;;;9.83;3.72;;;;;;;-3.89;83.75;99817.17;1709314;82;21289;-68
2021/03/05 01:46:58;;;;;;;5.78;3.05;;;;;;;-3.98;83.58;99814.48;1731972;82;21197;-68
2021/03/05 01:49:25;;;;;;;8.65;2.67;;;;;;;-4.06;83.57;99813.56;1738049;82;22576;-67
2021/03/05 01:51:52;;;;;;;8.50;3.37;;;;;;;-4.11;83.62;99810.94;1729095;80;21184;-68
2021/03/05 01:54:19;;;;;;;8.08;2.30;;;;;;;-4.11;83.76;99812.63;1727333;82;21205;-68
2021/03/05 01:56:51;;;;;;;8.25;3.00;;;;;;;-4.14;83.76;99810.05;1732517;82;21599;-68
2021/03/05 01:59:33;;;;;;;10.08;2.30;;;;;;;-4.15;83.73;99813.41;1734633;82;21159;-68
2021/03/05 02:02:24;;;;;;;5.30;2.35;;;;;;;-4.16;83.87;99811.71;1734743;82;21230;-68
2021/03/05 02:04:51;;;;;;;8.43;2.75;;;;;;;-4.11;84.04;99814.77;1689690;83;21263;-68
2021/03/05 02:07:18;;;;;;;6.58;2.47;;;;;;;-4.08;83.88;99817.77;1689048;83;21235;-68
2021/03/05 02:09:45;;;;;;;7.45;2.35;;;;;;;-4.09;83.83;99813.48;1691441;82;21580;-68
2021/03/05 02:12:12;;;;;;;7.70;2.45;;;;;;;-4.10;83.83;99814.34;1676280;83;21179;-68
2021/03/05 02:14:39;;;;;;;8.70;3.02;;;;;;;-4.10;83.77;99819.44;1689593;83;21302;-68
2021/03/05 02:17:38;;;;;;;6.80;2.50;;;;;;;-4.07;83.81;99819.47;1682699;83;21284;-68
2021/03/05 02:20:13;;;;;;;4.85;2.87;;;;;;;-4.05;83.94;99823.77;1596282;88;21335;-69
2021/03/05 02:23:39;;;;;;;6.33;2.30;;;;;;;-3.97;83.89;99818.77;1790279;78;22764;-67
2021/03/05 02:26:36;;;;;;;4.55;2.65;;;;;;;-4.00;83.76;99820.44;1767184;80;20973;-67
2021/03/05 02:29:34;;;;;;;7.90;2.90;;;;;;;-4.05;83.77;99817.81;1767043;80;21271;-68
2021/03/05 02:32:23;;;;;;;5.28;2.90;;;;;;;-4.05;83.86;99825.46;1763222;80;21198;-68
2021/03/05 02:34:52;;;;;;;9.35;3.30;;;;;;;-4.11;83.68;99827.94;1763306;80;21187;-68
2021/03/05 02:37:23;;;;;;;8.55;3.08;;;;;;;-4.15;83.74;99826.16;1765177;80;21122;-67
2021/03/05 02:40:11;;;;;;;7.60;3.37;;;;;;;-4.16;83.77;99820.64;1751881;80;21826;-67
2021/03/05 02:42:55;;;;;;;10.93;5.42;;;;;;;-4.18;83.84;99823.58;1768669;80;21266;-69
2021/03/05 02:45:36;;;;;;;15.40;6.28;;;;;;;-4.21;83.68;99831.19;1767953;80;21080;-68
2021/03/05 02:48:11;;;;;;;13.32;7.05;;;;;;;-4.32;83.52;99823.38;1765951;80;21605;-68
2021/03/05 02:50:54;;;;;;;18.77;8.80;;;;;;;-4.43;83.47;99823.22;1825625;76;22220;-67
2021/03/05 02:53:25;;;;;;;11.78;6.10;;;;;;;-4.57;83.42;99827.25;1794384;78;21030;-68
2021/03/05 02:55:56;;;;;;;14.28;6.97;;;;;;;-4.67;83.45;99833.06;1806523;77;21207;-68
2021/03/05 02:58:25;;;;;;;6.40;3.70;;;;;;;-4.78;83.43;99840.09;1797832;78;21132;-68
2021/03/05 03:00:55;;;;;;;6.12;3.47;;;;;;;-4.82;83.68;99839.59;1797279;78;21013;-69
2021/03/05 03:03:23;;;;;;;7.05;3.95;;;;;;;-4.85;83.65;99844.64;1796711;77;21052;-68
2021/03/05 03:05:52;;;;;;;6.87;3.27;;;;;;;-4.90;83.63;99848.83;1800452;78;21076;-67
2021/03/05 03:08:20;;;;;;;6.65;3.05;;;;;;;-4.91;83.80;99848.36;1796791;77;22159;-68
2021/03/05 03:10:49;;;;;;;11.57;4.70;;;;;;;-4.91;83.85;99859.82;1796626;78;21593;-68
2021/03/05 03:13:18;;;;;;;8.78;4.55;;;;;;;-4.92;83.88;99865.76;1800804;78;21119;-68
2021/03/05 03:15:45;;;;;;;8.63;3.62;;;;;;;-4.94;83.83;99869.95;1797502;77;21203;-68
2021/03/05 03:18:14;;;;;;;5.12;2.15;;;;;;;-4.92;84.04;99868.30;1795502;78;21135;-68
2021/03/05 03:20:43;;;;;;;5.08;2.77;;;;;;;-4.87;84.23;99876.89;1803524;77;21837;-69
2021/03/05 03:23:10;;;;;;;6.10;2.67;;;;;;;-4.80;84.25;99871.05;1797694;77;21499;-68
2021/03/05 03:25:37;;;;;;;3.60;2.05;;;;;;;-4.77;84.13;99869.83;1795905;77;24558;-68
2021/03/05 03:28:05;;;;;;;4.35;1.70;;;;;;;-4.74;84.22;99866.05;1795154;78;22162;-68
2021/03/05 03:30:32;;;;;;;6.00;2.52;;;;;;;-4.67;84.35;99872.55;1796638;78;21134;-68
2021/03/05 03:32:59;;;;;;;6.35;2.67;;;;;;;-4.60;84.40;99874.34;1801566;78;22720;-68
2021/03/05 03:35:26;;;;;;;7.58;3.33;;;;;;;-4.53;84.37;99881.27;1795952;77;21243;-68
2021/03/05 03:37:56;;;;;;;9.23;2.75;;;;;;;-4.45;84.50;99874.61;1800327;77;21171;-68
2021/03/05 03:40:23;;;;;;;4.22;2.30;;;;;;;-4.40;84.34;99883.58;1798009;77;21211;-69
2021/03/05 03:42:51;;;;;;;6.65;2.52;;;;;;;-4.39;84.29;99884.89;1800449;78;23245;-68
2021/03/05 03:45:21;;;;;;;5.45;2.98;;;;;;;-4.34;84.51;99886.22;1797114;77;21754;-69
2021/03/05 03:47:50;;;;;;;6.42;2.22;;;;;;;-4.27;84.97;99877.42;1794031;78;21230;-69
2021/03/05 03:50:34;;;;;;;4.80;2.10;;;;;;;-4.21;84.74;99886.00;1788653;78;21241;-69
2021/03/05 03:53:12;;;;;;;5.87;2.55;;;;;;;-4.20;84.69;99885.16;1783914;79;21204;-69
2021/03/05 03:55:40;;;;;;;4.03;2.35;;;;;;;-4.17;84.64;99890.30;1793697;78;21145;-69
2021/03/05 03:58:09;;;;;;;9.18;3.00;;;;;;;-4.14;84.51;99892.92;1793565;79;22167;-68
2021/03/05 04:00:37;;;;;;;6.40;2.80;;;;;;;-4.13;84.58;99900.58;1791410;79;21582;-68
2021/03/05 04:03:06;;;;;;;7.40;3.42;;;;;;;-4.10;84.57;99912.09;1760984;79;21229;-68
2021/03/05 04:05:43;;;;;;;6.20;2.98;;;;;;;-4.08;84.54;99912.13;1786324;79;21252;-68
2021/03/05 04:08:14;;;;;;;6.17;3.02;;;;;;;-4.04;84.55;99918.98;1787236;79;21195;-69
2021/03/05 04:10:42;;;;;;;7.05;2.90;;;;;;;-4.00;84.74;99921.18;1785604;79;21267;-69
2021/03/05 04:13:11;;;;;;;7.05;3.05;;;;;;;-3.95;84.68;99922.08;1792169;79;21084;-68
2021/03/05 04:15:38;;;;;;;6.12;3.50;;;;;;;-3.90;84.77;99923.86;1789520;78;21153;-69
2021/03/05 04:18:06;;;;;;;5.60;3.30;;;;;;;-3.86;84.82;99926.91;1786623;79;27389;-68
2021/03/05 04:20:39;;;;;;;9.28;4.20;;;;;;;-3.82;84.74;99926.10;1786651;79;22604;-68
2021/03/05 04:23:06;;;;;;;14.83;5.20;;;;;;;-3.80;84.76;99929.11;1788369;79;21198;-69
2021/03/05 04:25:34;;;;;;;14.75;6.75;;;;;;;-3.79;84.72;99926.98;1789974;79;21168;-68
2021/03/05 04:28:01;;;;;;;16.87;7.85;;;;;;;-3.80;84.74;99927.84;1795520;79;21216;-68
2021/03/05 04:30:28;;;;;;;12.20;5.22;;;;;;;-3.79;84.78;99921.89;1790700;79;21147;-68
2021/03/05 04:32:55;;;;;;;7.20;4.08;;;;;;;-3.79;84.64;99932.09;1787782;79;21165;-68
2021/03/05 04:35:22;;;;;;;10.45;4.12;;;;;;;-3.82;84.70;99928.66;1789741;79;22673;-68
2021/03/05 04:37:49;;;;;;;9.23;4.78;;;;;;;-3.84;85.01;99936.73;1793279;78;21226;-68
2021/03/05 04:40:16;;;;;;;11.08;5.17;;;;;;;-3.84;84.77;99934.56;1758088;79;21151;-68
2021/03/05 04:42:43;;;;;;;9.73;4.15;;;;;;;-3.83;84.71;99935.88;1790523;79;21840;-68
2021/03/05 04:45:11;;;;;;;8.55;5.22;;;;;;;-3.83;84.87;99946.09;1746001;81;21239;-68
2021/03/05 04:47:38;;;;;;;11.45;5.55;;;;;;;-3.83;84.69;99937.16;1731069;81;21205;-68
2021/03/05 04:50:06;;;;;;;12.23;4.72;;;;;;;-3.82;84.73;99941.41;1730480;81;23924;-68
2021/03/05 04:52:33;;;;;;;10.43;4.03;;;;;;;-3.76;84.81;99942.34;1733004;82;21080;-68
2021/03/05 04:55:01;;;;;;;9.13;4.53;;;;;;;-3.73;84.86;99950.03;1727496;82;21252;-68
2021/03/05 04:57:28;;;;;;;7.08;3.70;;;;;;;-3.72;84.85;99955.59;1736344;81;25738;-67
2021/03/05 04:59:55;;;;;;;9.05;3.75;;;;;;;-3.65;84.95;99943.34;1733643;81;21223;-68
2021/03/05 05:02:22;;;;;;;5.55;3.25;;;;;;;-3.58;85.02;99940.05;1731600;82;22376;-68
2021/03/05 05:04:49;;;;;;;6.17;3.62;;;;;;;-3.53;84.93;99935.84;1735578;81;21187;-68
2021/03/05 05:07:16;;;;;;;7.75;3.80;;;;;;;-3.41;85.04;99950.05;1731266;82;21179;-68
2021/03/05 05:09:43;;;;;;;6.30;3.85;;;;;;;-3.35;84.97;99957.36;1727493;82;21192;-68
2021/03/05 05:12:10;;;;;;;8.40;4.17;;;;;;;-3.30;84.90;99960.84;1732150;82;21287;-68
2021/03/05 05:14:37;;;;;;;5.20;3.22;;;;;;;-3.20;85.07;99957.53;1732803;81;21951;-68
2021/03/05 05:17:05;;;;;;;8.48;3.52;;;;;;;-3.11;85.03;99956.36;1735250;82;21695;-68
2021/03/05 05:19:32;;;;;;;8.50;3.70;;;;;;;-3.09;84.91;99943.20;1731511;82;21231;-67
2021/03/05 05:21:59;;;;;;;7.08;3.90;;;;;;;-3.11;84.70;99933.80;1730247;81;21199;-68
2021/03/05 05:24:26;;;;;;;8.18;3.58;;;;;;;-3.13;84.71;99943.16;1735416;82;21660;-68
2021/03/05 05:26:53;;;;;;;8.25;3.77;;;;;;;-3.09;84.94;99938.09;1721580;83;21213;-68
2021/03/05 05:29:20;;;;;;;10.93;5.33;;;;;;;-3.06;84.88;99929.17;1728118;82;21124;-68
2021/03/05 05:31:47;;;;;;;10.60;5.58;;;;;;;-3.05;84.88;99924.52;1725586;82;21244;-68
2021/03/05 05:34:15;;;;;;;17.37;6.35;;;;;;;-3.02;84.89;99938.61;1728674;82;21159;-67
2021/03/05 05:36:41;;;;;;;;;;;;;;;-2.96;84.89;99934.83;1726766;82;21643;-68
2021/03/05 05:39:08;;;;;;;9.75;5.28;;;;;;;-2.96;84.79;99932.28;1747596;80;20283;-68
2021/03/05 05:41:39;;;;;;;8.18;4.72;;;;;;;-3.00;84.67;99934.34;1723204;81;21122;-68
2021/03/05 05:44:08;;;;;;;5.58;3.15;;;;;;;-3.05;84.63;99937.30;1726703;82;21213;-68
2021/03/05 05:46:35;;;;;;;10.23;4.80;;;;;;;-3.08;84.64;99937.27;1725376;82;22490;-68
2021/03/05 05:49:03;;;;;;;;;;;;;;;-3.10;84.62;99938.94;1723227;82;21350;-68
2021/03/05 05:51:36;;;;;;;20.57;16.27;;;;;;;-3.14;84.65;99944.83;1703257;80;20494;-68
2021/03/05 05:54:10;;;;;;;14.70;12.10;;;;;;;-3.05;85.03;99947.52;1698203;81;22262;-68
2021/03/05 05:56:42;;;;;;;12.90;10.32;;;;;;;-2.46;85.72;99943.85;1743814;80;21028;-68
2021/03/05 05:59:09;;;;;;;11.93;9.05;;;;;;;-1.77;85.74;99940.52;1736760;80;21245;-68
2021/03/05 06:01:36;;;;;;;8.23;6.33;;;;;;;-1.14;85.12;99946.81;1741234;80;21761;-68
2021/03/05 06:04:05;;;;;;;4.95;4.28;;;;;;;-0.55;84.83;99944.41;1735419;81;21200;-68
2021/03/05 06:06:32;;;;;;;6.45;3.37;;;;;;;-0.04;84.17;99949.97;1733704;81;21276;-69
2021/03/05 06:09:01;;;;;;;3.83;2.47;;;;;;;0.36;83.35;99954.19;1768614;78;21268;-68
2021/03/05 06:11:37;;;;;;;3.52;2.55;;;;;;;0.68;82.98;99953.27;1740137;80;21245;-68
2021/03/05 06:14:09;;;;;;;4.25;2.75;;;;;;;1.13;83.03;99954.78;1730670;82;21216;-69
2021/03/05 06:16:42;;;;;;;5.12;3.67;;;;;;;1.55;82.87;99958.81;1758764;80;21254;-69
2021/03/05 06:19:19;;;;;;;8.73;3.45;;;;;;;2.08;82.78;99960.99;1750240;80;22324;-68
2021/03/05 06:21:47;;;;;;;7.53;2.87;;;;;;;2.48;82.33;99965.75;1744739;80;22274;-69
2021/03/05 06:24:14;;;;;;;;;;;;;;;2.86;81.95;99967.48;1736701;81;21211;-69
2021/03/05 06:29:51;;;;;;;9.98;4.17;;;;;;;3.39;81.20;99968.07;1724955;81;21247;-69
2021/03/05 06:32:19;;;;;;;13.43;6.55;;;;;;;3.48;80.47;99979.58;1726933;80;22354;-69
2021/03/05 06:34:51;;;;;;;21.85;12.45;;;;;;;3.47;80.43;99975.27;1729329;81;21621;-69
2021/03/05 06:37:21;;;;;;;35.88;15.75;;;;;;;3.93;81.59;99978.47;1726713;81;21649;-69
2021/03/05 06:40:06;;;;;;;40.05;18.27;;;;;;;4.13;80.16;99980.28;1728895;81;21238;-69
2021/03/05 06:42:49;;;;;;;22.77;10.48;;;;;;;4.17;80.27;99983.23;1755638;80;21123;-70
2021/03/05 06:45:37;;;;;;;12.25;7.08;;;;;;;4.21;80.39;99986.17;1833818;76;22277;-68
2021/03/05 06:48:07;;;;;;;10.68;5.83;;;;;;;3.80;80.32;99990.27;1806098;77;21239;-68
2021/03/05 06:50:42;;;;;;;8.28;4.25;;;;;;;3.30;80.10;100006.03;1809659;77;21180;-69
2021/03/05 06:53:25;;;;;;;5.10;3.10;;;;;;;2.88;80.70;100016.00;1802312;77;21652;-69
2021/03/05 06:55:53;;;;;;;10.35;6.37;;;;;;;2.65;81.07;100015.41;1804767;77;21546;-69
2021/03/05 06:58:20;;;;;;;12.73;8.10;;;;;;;2.48;81.62;100008.28;1742975;80;21091;-69
2021/03/05 07:00:47;;;;;;;8.45;5.40;;;;;;;2.22;81.19;100015.82;1740358;80;21062;-69
2021/03/05 07:03:21;;;;;;;12.23;6.62;;;;;;;1.98;81.47;100015.13;1739534;80;22179;-69
2021/03/05 07:05:50;;;;;;;14.28;7.37;;;;;;;1.88;81.89;100016.09;1739157;81;21041;-69
2021/03/05 07:08:38;;;;;;;13.03;6.75;;;;;;;1.85;81.90;100021.27;1740640;80;21077;-69
2021/03/05 07:11:17;;;;;;;14.95;10.05;;;;;;;2.14;82.48;100025.33;1737928;80;21104;-69
2021/03/05 07:13:51;;;;;;;19.70;10.28;;;;;;;2.52;82.48;100022.42;1733251;80;21215;-69
2021/03/05 07:16:19;;;;;;;21.27;13.10;;;;;;;2.57;81.68;100025.78;1734281;82;22166;-69
2021/03/05 07:18:48;;;;;;;31.35;17.57;;;;;;;2.49;81.76;100021.58;1738564;80;21583;-69
2021/03/05 07:21:20;;;;;;;26.65;16.12;;;;;;;2.76;82.50;100027.75;1743734;80;21653;-69
2021/03/05 07:23:48;;;;;;;31.68;18.77;;;;;;;3.42;82.95;100026.10;1734422;80;21630;-69
2021/03/05 07:26:18;;;;;;;42.80;22.05;;;;;;;3.89;82.22;100023.30;1736267;80;21172;-70
2021/03/05 07:28:47;;;;;;;64.90;30.05;;;;;;;4.17;82.04;100024.59;1738917;80;21590;-70
2021/03/05 07:31:24;;;;;;;56.02;27.17;;;;;;;4.48;81.82;100027.92;1736544;80;21147;-69
2021/03/05 07:33:57;;;;;;;61.02;32.15;;;;;;;4.71;81.34;100029.67;1741459;80;21645;-69
2021/03/05 07:36:28;;;;;;;48.75;26.27;;;;;;;4.74;81.10;100026.18;1738314;80;21634;-69
2021/03/05 07:39:01;;;;;;;52.03;25.62;;;;;;;4.50;80.37;100032.63;1739581;81;21142;-69
2021/03/05 07:41:29;;;;;;;38.30;19.62;;;;;;;4.24;80.49;100039.55;1747480;80;21212;-68
2021/03/05 07:43:57;;;;;;;32.20;17.00;;;;;;;3.89;80.26;100043.96;1743437;80;21146;-69
2021/03/05 07:46:26;;;;;;;28.95;13.20;;;;;;;3.72;80.57;100045.05;1740047;80;21252;-69
2021/03/05 07:48:54;;;;;;;18.77;10.58;;;;;;;3.88;81.24;100037.95;1724674;81;22318;-69
2021/03/05 07:51:21;;;;;;;25.05;12.90;;;;;;;3.94;81.35;100040.42;1727634;81;21189;-68
2021/03/05 07:53:51;;;;;;;21.10;9.48;;;;;;;4.05;80.98;100040.27;1726949;81;21246;-70
2021/03/05 07:56:45;;;;;;;12.25;7.58;;;;;;;4.12;80.95;100043.19;1832130;75;22892;-70
2021/03/05 07:59:35;;;;;;;12.13;7.83;;;;;;;4.11;81.13;100041.91;1803930;77;21128;-69
2021/03/05 08:02:11;;;;;;;9.88;6.40;;;;;;;4.28;80.96;100049.39;1839708;76;22748;-69
2021/03/05 08:05:06;;;;;;;11.10;6.25;;;;;;;4.38;81.26;100050.95;1807627;77;21090;-71
2021/03/05 08:07:38;;;;;;;11.70;5.67;;;;;;;4.40;80.84;100051.79;1808127;77;21198;-67
2021/03/05 08:10:06;;;;;;;8.88;5.55;;;;;;;4.25;80.98;100025.29;1783314;78;21143;-70
2021/03/05 08:12:40;;;;;;;15.50;6.47;;;;;;;4.47;80.55;100054.67;1811639;77;21033;-72
2021/03/05 08:15:15;;;;;;;11.35;5.85;;;;;;;4.52;80.80;100048.14;1778275;78;21200;-76
2021/03/05 08:17:47;;;;;;;10.25;6.53;;;;;;;4.57;80.87;100047.17;1809260;77;21089;-72
2021/03/05 08:20:23;;;;;;;12.60;6.62;;;;;;;4.59;80.38;100052.30;1778944;78;22137;-73
2021/03/05 08:23:05;;;;;;;15.95;8.05;;;;;;;4.45;79.62;100056.42;1810314;77;21102;-73
2021/03/05 08:25:39;;;;;;;17.67;7.85;;;;;;;4.46;79.77;100056.85;1814099;77;21044;-75
2021/03/05 08:28:18;;;;;;;15.32;7.78;;;;;;;4.60;80.23;100052.30;1747675;80;21192;-73
2021/03/05 08:30:45;;;;;;;15.85;5.80;;;;;;;4.59;79.17;100045.39;1727306;80;21164;-73
2021/03/05 08:33:32;;;;;;;8.75;4.22;;;;;;;4.21;78.16;100053.37;1776550;79;21198;-73
2021/03/05 08:35:59;;;;;;;5.03;2.77;;;;;;;3.59;77.72;100056.45;1775922;79;21673;-72
2021/03/05 08:38:36;;;;;;;5.35;2.33;;;;;;;3.16;77.95;100063.41;1750564;78;22327;-72
2021/03/05 08:41:05;;;;;;;9.58;2.60;;;;;;;3.06;79.03;100072.16;1772141;78;21277;-72
2021/03/05 08:43:56;;;;;;;6.45;2.47;;;;;;;3.19;79.39;100065.95;1741175;79;21278;-72
2021/03/05 08:46:35;;;;;;;5.42;2.70;;;;;;;3.22;78.75;100056.92;1770087;78;22771;-69
2021/03/05 08:49:02;;;;;;;7.75;2.62;;;;;;;2.96;78.02;100073.11;1771055;79;21048;-69
2021/03/05 08:51:34;;;;;;;;;;;;;;;2.94;79.27;100068.39;1778123;79;22227;-68
2021/03/05 08:54:04;;;;;;;7.62;3.17;;;;;;;2.84;76.26;100067.66;1751192;80;20746;-69
2021/03/05 08:56:32;;;;;;;4.05;1.90;;;;;;;2.47;77.21;100068.00;1773051;79;21096;-68
2021/03/05 09:01:32;;;;;;;4.62;2.33;;;;;;;2.48;78.11;100067.56;1842498;76;22793;-69
2021/03/05 09:04:19;;;;;;;6.65;1.50;;;;;;;2.32;77.38;100070.25;1797649;77;21681;-68
2021/03/05 09:06:54;;;;;;;5.28;2.00;;;;;;;2.26;76.69;100074.17;1805445;78;21258;-69
2021/03/05 09:09:32;;;;;;;1.70;1.27;;;;;;;2.26;78.00;100072.03;1835830;76;22784;-68
2021/03/05 09:12:09;;;;;;;2.08;1.32;;;;;;;2.18;75.09;100083.68;1806501;78;21038;-68
2021/03/05 09:14:37;;;;;;;5.03;1.60;;;;;;;2.07;77.11;100080.33;1807278;77;21196;-68
2021/03/05 09:17:07;;;;;;;5.17;1.82;;;;;;;2.05;76.65;100085.95;1814943;77;21211;-69
2021/03/05 09:19:46;;;;;;;3.75;1.57;;;;;;;2.06;76.33;100091.50;1810539;77;21049;-69
2021/03/05 09:22:24;;;;;;;2.85;1.32;;;;;;;2.00;76.40;100086.81;1814478;77;21084;-69
2021/03/05 09:24:56;;;;;;;3.30;1.20;;;;;;;2.18;77.26;100093.98;1807626;77;20989;-68
2021/03/05 09:27:39;;;;;;;4.33;2.08;;;;;;;2.35;75.75;100094.73;1807277;77;21185;-70
2021/03/05 09:30:22;;;;;;;3.42;1.80;;;;;;;2.27;74.53;100102.95;1752279;80;21299;-70
2021/03/05 09:32:55;;;;;;;4.30;1.70;;;;;;;2.17;74.63;100092.28;1720960;80;21074;-69
2021/03/05 09:35:29;;;;;;;2.60;1.50;;;;;;;2.53;76.71;100093.72;1749327;80;21240;-71
2021/03/05 09:37:57;;;;;;;2.65;1.40;;;;;;;2.83;76.81;100096.46;1770351;79;21180;-69
2021/03/05 09:40:28;;;;;;;4.50;1.55;;;;;;;3.10;76.77;100099.61;1733973;80;21253;-68
2021/03/05 09:43:02;;;;;;;6.17;1.62;;;;;;;3.28;77.32;100093.41;1770833;79;21287;-67
2021/03/05 09:45:43;;;;;;;3.37;1.70;;;;;;;3.41;75.65;100094.11;1750469;80;21624;-67
2021/03/05 09:48:14;;;;;;;3.62;1.70;;;;;;;3.48;76.56;100100.91;1749779;80;21247;-67
2021/03/05 09:52:04;;;;;;;4.20;2.10;;;;;;;3.78;76.16;100106.98;1830602;76;22703;-66
2021/03/05 09:54:41;;;;;;;6.22;2.45;;;;;;;3.64;75.58;100102.44;1802671;78;20979;-66
2021/03/05 09:57:12;;;;;;;7.78;2.20;;;;;;;3.51;75.98;100107.33;1808009;77;22694;-68
2021/03/05 09:59:45;;;;;;;4.67;2.08;;;;;;;3.90;76.17;100110.27;1799985;78;21080;-68
2021/03/05 10:02:20;;;;;;;4.22;1.72;;;;;;;3.85;75.57;100099.98;1803910;78;21098;-68
2021/03/05 10:04:50;;;;;;;5.55;2.10;;;;;;;3.75;75.64;100104.44;1804169;78;21557;-67
2021/03/05 10:07:19;;;;;;;5.12;2.30;;;;;;;3.63;75.74;100113.62;1806495;77;21017;-68
2021/03/05 10:09:46;;;;;;;5.67;2.25;;;;;;;3.85;76.54;100112.05;1801969;78;22397;-68
2021/03/05 10:12:13;;;;;;;3.20;1.72;;;;;;;4.28;77.01;100107.55;1803945;78;22193;-68
2021/03/05 10:14:41;;;;;;;5.47;1.72;;;;;;;4.58;75.80;100105.77;1803969;77;21072;-68
2021/03/05 10:17:13;;;;;;;5.37;2.62;;;;;;;4.35;74.01;100104.85;1799933;77;21727;-68
2021/03/05 10:19:44;;;;;;;4.10;2.10;;;;;;;4.46;75.78;100098.22;1804812;77;21147;-70
2021/03/05 10:22:16;;;;;;;5.62;1.87;;;;;;;4.69;74.69;100109.02;1809609;78;21201;-68
2021/03/05 10:24:45;;;;;;;6.87;2.10;;;;;;;4.90;73.99;100117.28;1771615;78;21222;-68
2021/03/05 10:29:57;;;;;;;6.28;1.90;;;;;;;4.89;72.84;100115.59;1830258;77;22260;-69
2021/03/05 10:32:39;;;;;;;6.50;2.10;;;;;;;4.57;74.35;100114.42;1801924;77;21599;-74
2021/03/05 10:35:16;;;;;;;3.67;1.87;;;;;;;4.75;73.87;100111.10;1748434;80;21200;-76
2021/03/05 10:37:44;;;;;;;4.50;2.10;;;;;;;5.26;75.38;100107.98;1769745;79;21104;-74
2021/03/05 10:40:14;;;;;;;3.55;1.55;;;;;;;5.50;73.41;100111.84;1749817;80;21133;-74
2021/03/05 10:42:42;;;;;;;3.77;1.10;;;;;;;5.25;72.72;100115.80;1721321;80;21709;-77
2021/03/05 10:45:10;;;;;;;3.35;1.00;;;;;;;4.95;73.35;100114.18;1726571;81;21061;-75
2021/03/05 10:47:37;;;;;;;2.72;1.50;;;;;;;4.72;72.77;100110.71;1740714;81;22677;-70
2021/03/05 10:50:05;;;;;;;3.40;1.20;;;;;;;4.25;72.34;100105.42;1751511;80;21123;-74
2021/03/05 10:52:32;;;;;;;1.55;0.72;;;;;;;4.25;73.78;100113.17;1740979;81;21101;-70
2021/03/05 10:54:59;;;;;;;1.95;0.82;;;;;;;4.63;71.15;100109.14;1739688;81;21648;-72
2021/03/05 10:57:26;;;;;;;2.40;0.80;;;;;;;4.66;72.72;100111.67;1751819;80;21581;-71
2021/03/05 10:59:55;;;;;;;3.40;1.47;;;;;;;4.73;71.80;100114.14;1754250;80;22232;-71
2021/03/05 11:02:23;;;;;;;2.20;0.80;;;;;;;4.61;73.15;100105.72;1752041;80;21659;-73
2021/03/05 11:04:50;;;;;;;1.42;0.62;;;;;;;4.60;72.75;100107.89;1748854;81;21207;-72
2021/03/05 11:09:55;;;;;;;3.05;0.72;;;;;;;4.52;71.87;100113.63;1781610;78;23457;-69
2021/03/05 11:12:22;;;;;;;1.75;0.68;;;;;;;4.48;71.59;100110.66;1750698;80;21076;-69
2021/03/05 11:14:50;;;;;;;2.92;0.85;;;;;;;4.23;71.02;100108.48;1750817;80;21654;-70
2021/03/05 11:17:17;;;;;;;1.67;0.70;;;;;;;4.11;72.20;100106.06;1754662;80;21649;-71
2021/03/05 11:19:46;;;;;;;7.47;1.32;;;;;;;4.11;71.45;100102.63;1690696;83;21139;-67
2021/03/05 11:22:15;;;;;;;7.53;1.12;;;;;;;4.05;72.35;100097.13;1687475;83;21598;-68
2021/03/05 11:24:42;;;;;;;2.70;0.78;;;;;;;3.98;70.77;100102.83;1662461;83;21080;-67
2021/03/05 11:27:09;;;;;;;3.37;0.93;;;;;;;4.08;72.22;100099.66;1687826;83;24673;-71
2021/03/05 11:29:37;;;;;;;1.92;0.90;;;;;;;4.23;72.41;100092.13;1689089;83;21083;-72
2021/03/05 11:32:06;;;;;;;1.52;0.45;;;;;;;4.08;68.69;100104.83;1685752;84;21281;-71
2021/03/05 11:34:34;;;;;;;1.65;0.70;;;;;;;3.50;68.38;100099.14;1685452;83;21202;-69
2021/03/05 11:37:02;;;;;;;2.12;0.72;;;;;;;2.95;68.70;100113.98;1689629;82;21178;-67
2021/03/05 11:39:29;;;;;;;4.67;1.40;;;;;;;2.41;68.46;100115.30;1686441;84;22450;-76
2021/03/05 11:41:58;;;;;;;3.72;1.77;;;;;;;1.91;69.06;100116.49;1686776;84;23163;-75
2021/03/05 11:44:27;;;;;;;2.62;0.93;;;;;;;1.45;67.78;100124.41;1691188;84;21238;-78
2021/03/05 11:46:54;;;;;;;3.45;0.93;;;;;;;1.23;70.45;100125.34;1690930;82;21248;-68
2021/03/05 11:49:21;;;;;;;2.20;0.80;;;;;;;0.95;69.86;100125.41;1689973;82;21213;-68
2021/03/05 11:51:48;;;;;;;3.67;1.20;;;;;;;0.91;69.92;100123.71;1693230;84;21290;-69
2021/03/05 11:54:15;;;;;;;1.50;0.50;;;;;;;1.05;70.98;100123.25;1689030;84;21202;-68
2021/03/05 11:56:43;;;;;;;2.58;0.93;;;;;;;1.29;69.37;100130.50;1667438;84;21668;-68
2021/03/05 11:59:10;;;;;;;;;;;;;;;1.54;70.40;100126.97;1689995;82;21222;-69
2021/03/05 12:01:37;;;;;;;1.72;0.55;;;;;;;1.73;69.32;100114.00;1689564;82;20296;-68
2021/03/05 12:04:04;;;;;;;1.12;0.47;;;;;;;2.00;69.00;100116.43;1691671;82;21277;-69